createdAt,value
2023-06-12T00:01:32.388Z,3.28
2023-06-12T00:04:01.376Z,3.08
2023-06-12T00:06:29.642Z,2.80
2023-06-12T00:08:59.324Z,3.42
2023-06-12T00:11:28.472Z,3.13
2023-06-12T00:13:56.464Z,3.20
2023-06-12T00:16:25.317Z,3.35
2023-06-12T00:18:55.658Z,3.00
2023-06-12T00:23:53.132Z,3.35
2023-06-12T00:26:21.175Z,3.47
2023-06-12T00:28:49.835Z,3.00
2023-06-12T00:31:18.740Z,3.35
2023-06-12T00:33:47.303Z,3.10
2023-06-12T00:36:18.733Z,3.33
2023-06-12T00:41:14.998Z,3.35
2023-06-12T00:43:43.112Z,3.42
2023-06-12T00:46:12.914Z,3.83
2023-06-12T00:48:42.950Z,3.78
2023-06-12T00:53:41.023Z,3.75
2023-06-12T00:56:09.285Z,3.88
2023-06-12T00:58:38.220Z,3.28
2023-06-12T01:01:06.265Z,3.40
2023-06-12T01:03:34.542Z,3.30
2023-06-12T01:06:10.659Z,4.00
2023-06-12T01:09:04.936Z,3.97
2023-06-12T01:11:35.571Z,3.55
2023-06-12T01:14:04.109Z,4.45
2023-06-12T01:16:32.648Z,4.78
2023-06-12T01:19:02.212Z,4.30
2023-06-12T01:21:34.073Z,4.50
2023-06-12T01:24:22.686Z,4.03
2023-06-12T01:27:13.936Z,4.07
2023-06-12T01:29:55.376Z,3.97
2023-06-12T01:32:25.933Z,4.00
2023-06-12T01:34:59.209Z,4.35
2023-06-12T01:37:36.251Z,4.28
2023-06-12T01:40:11.171Z,4.25
2023-06-12T01:42:41.010Z,4.18
2023-06-12T01:45:10.320Z,4.43
2023-06-12T01:47:39.857Z,4.22
2023-06-12T01:50:10.660Z,4.30
2023-06-12T01:52:41.499Z,4.05
2023-06-12T01:55:11.085Z,4.30
2023-06-12T01:57:40.021Z,4.40
2023-06-12T02:00:12.164Z,4.15
2023-06-12T02:02:54.725Z,5.22
2023-06-12T02:05:27.925Z,4.32
2023-06-12T02:07:56.145Z,4.28
2023-06-12T02:12:55.233Z,4.20
2023-06-12T02:15:23.488Z,4.15
2023-06-12T02:17:53.817Z,4.40
2023-06-12T02:22:49.630Z,4.40
2023-06-12T02:25:19.817Z,4.38
2023-06-12T02:27:48.785Z,4.55
2023-06-12T02:30:17.106Z,4.68
2023-06-12T02:32:45.573Z,4.05
2023-06-12T02:37:45.838Z,4.10
2023-06-12T02:40:15.032Z,4.40
2023-06-12T02:42:43.816Z,4.40
2023-06-12T02:45:13.886Z,4.82
2023-06-12T02:47:42.474Z,4.50
2023-06-12T02:50:11.977Z,4.32
2023-06-12T02:52:51.690Z,3.90
2023-06-12T02:55:20.406Z,4.13
2023-06-12T02:57:49.442Z,4.13
2023-06-12T03:00:18.183Z,4.03
2023-06-12T03:02:48.643Z,4.60
2023-06-12T03:05:18.898Z,4.30
2023-06-12T03:07:47.108Z,3.95
2023-06-12T03:10:20.107Z,4.00
2023-06-12T03:12:48.176Z,4.40
2023-06-12T03:15:17.877Z,3.65
2023-06-12T03:20:15.684Z,3.92
2023-06-12T03:22:44.329Z,4.25
2023-06-12T03:25:13.109Z,3.95
2023-06-12T03:27:42.854Z,4.15
2023-06-12T03:32:40.548Z,4.00
2023-06-12T03:35:10.573Z,3.97
2023-06-12T03:37:42.571Z,4.03
2023-06-12T03:40:13.974Z,4.25
2023-06-12T03:42:46.225Z,4.18
2023-06-12T03:45:14.239Z,3.95
2023-06-12T03:47:42.451Z,3.75
2023-06-12T03:50:13.905Z,3.92
2023-06-12T03:52:42.274Z,3.80
2023-06-12T03:55:11.070Z,4.00
2023-06-12T03:57:39.873Z,4.13
2023-06-12T04:00:13.873Z,4.20
2023-06-12T04:05:22.141Z,3.72
2023-06-12T04:07:51.676Z,3.70
2023-06-12T04:10:20.220Z,3.88
2023-06-12T04:12:49.011Z,3.83
2023-06-12T04:15:18.832Z,4.25
2023-06-12T04:20:15.448Z,3.97
2023-06-12T04:22:44.090Z,3.75
2023-06-12T04:25:12.583Z,3.70
2023-06-12T04:27:44.032Z,4.18
2023-06-12T04:30:17.189Z,5.53
2023-06-12T04:32:47.110Z,5.00
2023-06-12T04:37:49.250Z,3.72
2023-06-12T04:40:18.847Z,4.00
2023-06-12T04:42:48.008Z,3.72
2023-06-12T04:45:19.982Z,4.53
2023-06-12T04:47:51.570Z,3.75
2023-06-12T04:50:20.893Z,4.10
2023-06-12T04:52:49.893Z,4.15
2023-06-12T04:55:21.618Z,4.60
2023-06-12T04:57:53.618Z,4.18
2023-06-12T05:00:25.686Z,4.75
2023-06-12T05:02:55.742Z,4.30
2023-06-12T05:05:24.213Z,4.43
2023-06-12T05:07:52.894Z,4.60
2023-06-12T05:10:21.983Z,4.43
2023-06-12T05:12:50.194Z,4.47
2023-06-12T05:15:18.686Z,4.82
2023-06-12T05:17:47.306Z,4.90
2023-06-12T05:20:16.983Z,4.75
2023-06-12T05:22:46.260Z,4.88
2023-06-12T05:25:14.678Z,4.72
2023-06-12T05:27:42.725Z,5.13
2023-06-12T05:30:12.221Z,5.18
2023-06-12T05:32:40.515Z,4.63
2023-06-12T05:35:10.604Z,4.97
2023-06-12T05:37:40.960Z,4.57
2023-06-12T05:42:40.214Z,4.22
2023-06-12T05:45:10.734Z,4.63
2023-06-12T05:47:38.906Z,4.82
2023-06-12T05:50:10.394Z,4.70
2023-06-12T05:52:40.384Z,4.23
2023-06-12T05:55:12.429Z,4.65
2023-06-12T05:57:41.894Z,4.20
2023-06-12T06:00:12.437Z,4.40
2023-06-12T06:02:45.624Z,4.55
2023-06-12T06:05:28.142Z,4.70
2023-06-12T06:07:57.432Z,4.50
2023-06-12T06:10:28.499Z,4.45
2023-06-12T06:12:56.566Z,4.72
2023-06-12T06:15:24.570Z,4.20
2023-06-12T06:17:55.050Z,4.22
2023-06-12T06:20:23.104Z,4.32
2023-06-12T06:22:53.179Z,4.55
2023-06-12T06:25:21.741Z,4.43
2023-06-12T06:27:51.932Z,4.37
2023-06-12T06:30:20.604Z,4.68
2023-06-12T06:32:48.579Z,4.40
2023-06-12T06:35:17.264Z,4.50
2023-06-12T06:37:46.187Z,4.50
2023-06-12T06:40:16.277Z,4.60
2023-06-12T06:42:44.973Z,4.43
2023-06-12T06:45:15.958Z,4.40
2023-06-12T06:47:45.226Z,4.88
2023-06-12T06:50:14.308Z,4.63
2023-06-12T06:52:43.635Z,4.63
2023-06-12T06:55:13.875Z,4.80
2023-06-12T06:57:44.999Z,4.68
2023-06-12T07:00:16.291Z,4.97
2023-06-12T07:02:46.694Z,4.78
2023-06-12T07:05:18.110Z,4.53
2023-06-12T07:08:01.009Z,5.00
2023-06-12T07:10:31.837Z,5.00
2023-06-12T07:13:00.293Z,4.72
2023-06-12T07:15:36.661Z,5.20
2023-06-12T07:18:05.814Z,5.05
2023-06-12T07:20:33.860Z,5.15
2023-06-12T07:23:01.872Z,4.90
2023-06-12T07:25:30.701Z,4.90
2023-06-12T07:27:59.538Z,5.00
2023-06-12T07:30:27.879Z,4.95
2023-06-12T07:32:58.619Z,5.13
2023-06-12T07:35:26.814Z,5.15
2023-06-12T07:37:54.995Z,4.93
2023-06-12T07:40:23.855Z,5.25
2023-06-12T07:42:51.912Z,5.10
2023-06-12T07:47:53.447Z,5.50
2023-06-12T07:50:27.467Z,5.75
2023-06-12T07:52:57.244Z,5.30
2023-06-12T07:55:25.825Z,5.50
2023-06-12T07:57:55.770Z,5.88
2023-06-12T08:00:25.961Z,5.15
2023-06-12T08:02:59.907Z,5.40
2023-06-12T08:05:37.471Z,5.53
2023-06-12T08:08:13.700Z,5.53
2023-06-12T08:10:43.709Z,5.93
2023-06-12T08:13:14.011Z,5.90
2023-06-12T08:15:42.537Z,5.60
2023-06-12T08:18:13.404Z,5.78
2023-06-12T08:20:44.122Z,5.72
2023-06-12T08:23:12.164Z,5.13
2023-06-12T08:25:40.750Z,5.27
2023-06-12T08:28:10.206Z,5.70
2023-06-12T08:30:38.840Z,5.50
2023-06-12T08:33:07.173Z,5.00
2023-06-12T08:35:37.318Z,5.30
2023-06-12T08:38:06.769Z,5.35
2023-06-12T08:40:35.941Z,5.45
2023-06-12T08:43:04.319Z,5.80
2023-06-12T08:45:34.867Z,5.70
2023-06-12T08:48:07.213Z,5.15
2023-06-12T08:50:36.102Z,5.57
2023-06-12T08:53:08.294Z,4.82
2023-06-12T08:55:40.789Z,4.90
2023-06-12T08:58:10.190Z,5.40
2023-06-12T09:00:38.205Z,5.70
2023-06-12T09:03:07.530Z,4.65
2023-06-12T09:05:39.155Z,5.38
2023-06-12T09:08:08.910Z,5.03
2023-06-12T09:10:40.279Z,4.90
2023-06-12T09:13:09.517Z,5.35
2023-06-12T09:15:41.602Z,4.95
2023-06-12T09:18:12.685Z,6.38
2023-06-12T09:20:43.531Z,5.35
2023-06-12T09:23:15.124Z,5.63
2023-06-12T09:25:55.391Z,4.85
2023-06-12T09:28:39.053Z,4.78
2023-06-12T09:31:07.363Z,4.45
2023-06-12T09:33:37.020Z,4.75
2023-06-12T09:36:06.514Z,4.65
2023-06-12T09:38:37.462Z,5.10
2023-06-12T09:41:08.032Z,4.68
2023-06-12T09:43:36.430Z,4.90
2023-06-12T09:46:06.229Z,4.65
2023-06-12T09:48:36.380Z,4.50
2023-06-12T09:51:07.882Z,4.80
2023-06-12T09:53:42.036Z,4.80
2023-06-12T09:56:11.702Z,5.10
2023-06-12T09:58:41.004Z,5.63
2023-06-12T10:01:10.151Z,5.38
2023-06-12T10:03:39.906Z,5.18
2023-06-12T10:06:11.100Z,5.47
2023-06-12T10:08:41.950Z,5.70
2023-06-12T10:11:12.133Z,5.53
2023-06-12T10:13:40.962Z,5.18
2023-06-12T10:16:10.605Z,5.43
2023-06-12T10:18:39.660Z,6.15
2023-06-12T10:21:08.649Z,5.75
2023-06-12T10:23:39.044Z,5.82
2023-06-12T10:26:10.840Z,6.47
2023-06-12T10:28:39.034Z,5.68
2023-06-12T10:31:12.610Z,6.10
2023-06-12T10:33:40.945Z,5.53
2023-06-12T10:36:14.081Z,5.65
2023-06-12T10:38:50.040Z,5.50
2023-06-12T10:41:33.887Z,5.22
2023-06-12T10:44:01.942Z,5.07
2023-06-12T10:46:49.456Z,5.18
2023-06-12T10:49:19.804Z,5.60
2023-06-12T10:51:53.755Z,5.25
2023-06-12T10:54:27.509Z,5.22
2023-06-12T10:57:04.547Z,5.20
2023-06-12T10:59:36.234Z,5.63
2023-06-12T11:02:05.900Z,5.30
2023-06-12T11:04:38.993Z,5.10
2023-06-12T11:07:08.731Z,5.40
2023-06-12T11:09:41.495Z,5.05
2023-06-12T11:12:12.064Z,5.00
2023-06-12T11:14:40.110Z,5.30
2023-06-12T11:17:08.269Z,5.20
2023-06-12T11:19:37.329Z,5.37
2023-06-12T11:22:05.744Z,5.40
2023-06-12T11:24:34.346Z,4.95
2023-06-12T11:27:04.382Z,5.07
2023-06-12T11:29:48.637Z,5.20
2023-06-12T11:32:25.614Z,4.88
2023-06-12T11:34:54.123Z,4.88
2023-06-12T11:37:26.770Z,4.80
2023-06-12T11:40:01.394Z,5.30
2023-06-12T11:42:29.969Z,5.43
2023-06-12T11:44:59.411Z,4.78
2023-06-12T11:49:59.816Z,5.78
2023-06-12T11:52:27.956Z,5.18
2023-06-12T11:57:32.267Z,5.05
2023-06-12T12:00:02.120Z,5.07
2023-06-12T12:02:41.124Z,4.55
2023-06-12T12:05:12.230Z,4.80
2023-06-12T12:07:41.771Z,4.43
2023-06-12T12:10:12.546Z,4.30
2023-06-12T12:12:47.023Z,4.57
2023-06-12T12:15:17.123Z,4.80
2023-06-12T12:17:49.820Z,4.43
2023-06-12T12:20:22.260Z,4.43
2023-06-12T12:22:52.381Z,4.38
2023-06-12T12:25:22.765Z,4.40
2023-06-12T12:27:52.843Z,4.32
2023-06-12T12:30:23.456Z,4.22
2023-06-12T12:32:54.440Z,4.18
2023-06-12T12:35:23.955Z,3.97
2023-06-12T12:37:52.940Z,4.20
2023-06-12T12:40:25.217Z,4.22
2023-06-12T12:42:55.794Z,4.22
2023-06-12T12:45:29.019Z,3.83
2023-06-12T12:47:57.315Z,4.20
2023-06-12T12:50:28.695Z,4.00
2023-06-12T12:52:58.792Z,4.20
2023-06-12T12:55:26.919Z,3.70
2023-06-12T12:58:05.987Z,4.18
2023-06-12T13:00:47.907Z,3.70
2023-06-12T13:03:18.000Z,3.88
2023-06-12T13:05:46.710Z,3.65
2023-06-12T13:08:15.120Z,3.83
2023-06-12T13:13:15.509Z,3.83
2023-06-12T13:15:46.494Z,3.55
2023-06-12T13:18:15.856Z,3.53
2023-06-12T13:20:44.270Z,3.83
2023-06-12T13:23:12.298Z,4.10
2023-06-12T13:25:41.260Z,3.30
2023-06-12T13:28:09.237Z,3.10
2023-06-12T13:30:37.204Z,3.30
2023-06-12T13:33:07.836Z,3.25
2023-06-12T13:35:39.378Z,3.33
2023-06-12T13:38:07.987Z,3.67
2023-06-12T13:40:36.485Z,3.80
2023-06-12T13:43:04.558Z,3.22
2023-06-12T13:45:33.675Z,3.80
2023-06-12T13:48:03.969Z,3.65
2023-06-12T13:50:34.813Z,3.95
2023-06-12T13:53:03.238Z,3.40
2023-06-12T13:55:31.391Z,3.72
2023-06-12T13:58:01.077Z,3.88
2023-06-12T14:00:29.989Z,3.50
2023-06-12T14:02:58.480Z,3.50
2023-06-12T14:05:26.602Z,3.53
2023-06-12T14:07:56.145Z,3.30
2023-06-12T14:10:26.252Z,3.42
2023-06-12T14:12:55.397Z,3.55
2023-06-12T14:15:24.019Z,3.28
2023-06-12T14:17:53.250Z,3.40
2023-06-12T14:22:49.310Z,3.22
2023-06-12T14:25:19.235Z,3.42
2023-06-12T14:27:47.570Z,3.60
2023-06-12T14:30:15.681Z,3.70
2023-06-12T14:32:43.705Z,3.08
2023-06-12T14:35:11.986Z,3.30
2023-06-12T14:37:40.815Z,3.20
2023-06-12T14:40:09.854Z,2.90
2023-06-12T14:42:40.120Z,3.60
2023-06-12T14:45:09.260Z,3.08
2023-06-12T14:47:37.268Z,3.20
2023-06-12T14:50:06.790Z,2.70
2023-06-12T14:52:34.827Z,2.90
2023-06-12T14:55:03.919Z,3.25
2023-06-12T14:57:33.041Z,3.17
2023-06-12T15:00:02.410Z,3.10
2023-06-12T15:02:31.351Z,3.03
2023-06-12T15:04:59.454Z,2.92
2023-06-12T15:07:28.010Z,3.23
2023-06-12T15:09:56.086Z,3.08
2023-06-12T15:12:24.012Z,2.83
2023-06-12T15:14:54.246Z,2.70
2023-06-12T15:17:23.679Z,3.30
2023-06-12T15:19:53.731Z,3.00
2023-06-12T15:22:22.724Z,2.97
2023-06-12T15:24:50.762Z,2.80
2023-06-12T15:27:19.651Z,2.90
2023-06-12T15:29:47.626Z,2.80
2023-06-12T15:32:16.017Z,3.03
2023-06-12T15:34:46.582Z,2.70
2023-06-12T15:37:17.072Z,2.85
2023-06-12T15:39:48.063Z,2.60
2023-06-12T15:42:16.715Z,3.05
2023-06-12T15:44:46.582Z,2.65
2023-06-12T15:47:15.839Z,2.90
2023-06-12T15:49:47.170Z,2.50
2023-06-12T15:52:15.155Z,2.78
2023-06-12T15:54:43.617Z,3.17
2023-06-12T15:57:11.717Z,2.70
2023-06-12T15:59:40.833Z,3.10
2023-06-12T16:02:09.243Z,3.10
2023-06-12T16:04:37.363Z,2.67
2023-06-12T16:07:08.168Z,2.75
2023-06-12T16:09:37.850Z,2.75
2023-06-12T16:12:06.577Z,2.80
2023-06-12T16:17:03.854Z,3.00
2023-06-12T16:19:32.184Z,2.97
2023-06-12T16:22:00.205Z,2.95
2023-06-12T16:24:30.491Z,3.08
2023-06-12T16:26:59.213Z,2.80
2023-06-12T16:29:28.378Z,2.53
2023-06-12T16:31:56.800Z,2.65
2023-06-12T16:34:25.854Z,2.63
2023-06-12T16:36:53.821Z,2.67
2023-06-12T16:39:22.290Z,2.83
2023-06-12T16:41:51.747Z,2.77
2023-06-12T16:44:20.585Z,3.10
2023-06-12T16:46:48.623Z,3.17
2023-06-12T16:49:17.195Z,2.72
2023-06-12T16:51:45.624Z,2.80
2023-06-12T16:54:14.588Z,2.47
2023-06-12T16:56:43.057Z,2.70
2023-06-12T16:59:12.911Z,2.78
2023-06-12T17:01:41.153Z,2.42
2023-06-12T17:04:09.330Z,2.70
2023-06-12T17:06:38.202Z,2.73
2023-06-12T17:09:08.566Z,2.80
2023-06-12T17:11:36.919Z,2.92
2023-06-12T17:14:05.594Z,2.90
2023-06-12T17:16:35.010Z,2.53
2023-06-12T17:19:03.156Z,2.90
2023-06-12T17:21:31.733Z,2.50
2023-06-12T17:23:59.657Z,2.80
2023-06-12T17:26:27.649Z,2.90
2023-06-12T17:28:55.993Z,2.67
2023-06-12T17:31:24.047Z,2.85
2023-06-12T17:33:54.350Z,2.67
2023-06-12T17:36:22.341Z,2.63
2023-06-12T17:38:51.018Z,2.70
2023-06-12T17:41:19.104Z,2.90
2023-06-12T17:43:47.162Z,2.90
2023-06-12T17:46:17.116Z,2.75
2023-06-12T17:48:47.895Z,2.85
2023-06-12T17:51:17.882Z,3.10
2023-06-12T17:53:46.872Z,2.80
2023-06-12T17:56:15.557Z,2.78
2023-06-12T17:58:44.676Z,3.10
2023-06-12T18:01:14.143Z,2.80
2023-06-12T18:03:42.207Z,2.92
2023-06-12T18:06:11.228Z,3.28
2023-06-12T18:08:40.596Z,3.00
2023-06-12T18:11:09.511Z,3.30
2023-06-12T18:13:37.476Z,3.20
2023-06-12T18:16:06.622Z,3.20
2023-06-12T18:21:03.156Z,2.92
2023-06-12T18:23:31.229Z,5.82
2023-06-12T18:26:01.115Z,3.15
2023-06-12T18:28:33.285Z,3.35
2023-06-12T18:31:02.057Z,3.17
2023-06-12T18:33:31.347Z,3.00
2023-06-12T18:35:59.445Z,3.28
2023-06-12T18:38:27.840Z,2.90
2023-06-12T18:40:56.084Z,3.10
2023-06-12T18:43:25.639Z,3.60
2023-06-12T18:45:53.673Z,3.78
2023-06-12T18:48:21.759Z,3.45
2023-06-12T18:50:50.730Z,3.13
2023-06-12T18:53:18.707Z,3.63
2023-06-12T18:55:49.178Z,3.50
2023-06-12T18:58:18.323Z,3.40
2023-06-12T19:00:47.689Z,3.72
2023-06-12T19:05:43.576Z,3.53
2023-06-12T19:08:11.857Z,3.58
2023-06-12T19:10:39.854Z,3.38
2023-06-12T19:13:10.484Z,3.78
2023-06-12T19:15:38.969Z,3.60
2023-06-12T19:18:09.161Z,3.50
2023-06-12T19:20:38.351Z,3.20
2023-06-12T19:23:06.401Z,3.50
2023-06-12T19:25:34.386Z,3.50
2023-06-12T19:28:02.367Z,3.40
2023-06-12T19:30:30.349Z,3.65
2023-06-12T19:32:58.952Z,3.60
2023-06-12T19:35:28.769Z,3.85
2023-06-12T19:37:56.697Z,3.78
2023-06-12T19:40:24.664Z,3.58
2023-06-12T19:42:52.961Z,3.38
2023-06-12T19:45:24.066Z,3.38
2023-06-12T19:47:53.996Z,3.53
2023-06-12T19:52:52.500Z,3.75
2023-06-12T19:55:21.792Z,3.08
2023-06-12T19:57:50.393Z,3.90
2023-06-12T20:00:19.024Z,3.90
2023-06-12T20:02:47.054Z,3.40
2023-06-12T20:05:15.538Z,4.05
2023-06-12T20:07:43.686Z,3.67
2023-06-12T20:10:15.918Z,3.85
2023-06-12T20:12:44.052Z,3.63
2023-06-12T20:15:12.726Z,3.90
2023-06-12T20:17:41.617Z,3.77
2023-06-12T20:20:09.949Z,3.70
2023-06-12T20:22:37.953Z,3.83
2023-06-12T20:25:07.841Z,3.78
2023-06-12T20:27:45.381Z,3.92
2023-06-12T20:30:14.186Z,3.85
2023-06-12T20:32:42.365Z,3.50
2023-06-12T20:35:11.264Z,3.35
2023-06-12T20:37:39.424Z,4.35
2023-06-12T20:40:08.332Z,3.47
2023-06-12T20:42:36.266Z,4.27
2023-06-12T20:45:07.571Z,4.32
2023-06-12T20:47:35.868Z,4.20
2023-06-12T20:50:04.043Z,3.50
2023-06-12T20:52:33.098Z,3.60
2023-06-12T20:55:01.057Z,3.47
2023-06-12T20:57:31.303Z,3.90
2023-06-12T20:59:59.815Z,4.07
2023-06-12T21:02:30.715Z,3.85
2023-06-12T21:04:59.926Z,3.42
2023-06-12T21:07:27.923Z,3.70
2023-06-12T21:09:56.325Z,3.30
2023-06-12T21:12:24.308Z,3.85
2023-06-12T21:14:52.969Z,3.28
2023-06-12T21:17:21.487Z,3.83
2023-06-12T21:19:51.443Z,3.92
2023-06-12T21:22:38.817Z,3.83
2023-06-12T21:25:08.472Z,3.60
2023-06-12T21:27:36.888Z,3.50
2023-06-12T21:30:07.217Z,3.73
2023-06-12T21:32:37.312Z,3.80
2023-06-12T21:35:08.645Z,3.65
2023-06-12T21:37:37.386Z,3.55
2023-06-12T21:40:06.581Z,3.53
2023-06-12T21:42:35.826Z,3.65
2023-06-12T21:45:04.061Z,3.67
2023-06-12T21:47:33.072Z,3.50
2023-06-12T21:50:01.119Z,3.35
2023-06-12T21:52:30.490Z,3.60
2023-06-12T21:57:27.530Z,3.60
2023-06-12T21:59:55.479Z,3.80
2023-06-12T22:02:25.105Z,3.83
2023-06-12T22:04:53.622Z,3.80
2023-06-12T22:07:22.176Z,3.50
2023-06-12T22:09:51.918Z,3.80
2023-06-12T22:12:20.603Z,3.80
2023-06-12T22:14:48.609Z,3.50
2023-06-12T22:17:17.219Z,3.78
2023-06-12T22:19:45.265Z,3.95
2023-06-12T22:22:13.406Z,3.65
2023-06-12T22:24:41.964Z,3.80
2023-06-12T22:27:11.758Z,3.42
2023-06-12T22:29:39.713Z,3.67
2023-06-12T22:32:10.025Z,3.42
2023-06-12T22:34:38.102Z,3.90
2023-06-12T22:37:06.224Z,3.83
2023-06-12T22:39:36.686Z,3.47
2023-06-12T22:42:05.258Z,3.60
2023-06-12T22:44:34.545Z,3.80
2023-06-12T22:47:03.017Z,3.78
2023-06-12T22:49:31.113Z,3.33
2023-06-12T22:51:59.623Z,3.63
2023-06-12T22:54:28.050Z,3.50
2023-06-12T22:56:56.101Z,3.75
2023-06-12T22:59:24.072Z,3.95
2023-06-12T23:01:54.396Z,3.38
2023-06-12T23:06:50.713Z,3.67
2023-06-12T23:09:19.597Z,3.60
2023-06-12T23:11:47.570Z,3.80
2023-06-12T23:14:16.075Z,3.70
2023-06-12T23:16:45.020Z,4.00
2023-06-12T23:19:14.630Z,3.93
2023-06-12T23:21:43.244Z,3.85
2023-06-12T23:24:13.525Z,3.88
2023-06-12T23:29:10.639Z,4.10
2023-06-12T23:31:39.029Z,4.20
2023-06-12T23:34:07.283Z,3.90
2023-06-12T23:36:40.965Z,4.03
2023-06-12T23:39:09.547Z,4.05
2023-06-12T23:41:38.033Z,4.03
2023-06-12T23:44:07.357Z,3.73
2023-06-12T23:46:35.398Z,4.10
2023-06-12T23:49:04.074Z,3.85
2023-06-12T23:51:33.223Z,4.20
2023-06-12T23:54:03.676Z,4.00
2023-06-12T23:56:32.147Z,3.80
2023-06-12T23:59:00.197Z,4.15
